Terminal Aerodrome Forecast
Issued by NWS

Home | Current Version | Previous Version | Graphics & Text | Print | Product List | Glossary On
Versions: 1 2 3 4 5 6 7 8 9 10 11 12 13 14 15 16 17 18 19 20
000
FTUS43 KGRB 311100
TAFAUW
TAF
KAUW 311120Z 3112/0112 34017G28KT P6SM SCT020 BKN035
      TEMPO 3112/3115 -SN BKN020
     FM312000 35012G20KT P6SM SCT040
     FM312300 34005KT P6SM SKC=

USA.gov is the U.S. government's official web portal to all federal, state and local government web resources and services.